createdAt,value
2023-05-07T00:00:32.460Z,100374.53
2023-05-07T00:02:59.232Z,100369.72
2023-05-07T00:05:25.985Z,100371.69
2023-05-07T00:07:53.932Z,100367.31
2023-05-07T00:10:20.843Z,100362.53
2023-05-07T00:12:47.955Z,100364.25
2023-05-07T00:15:14.710Z,100369.88
2023-05-07T00:17:41.547Z,100369.31
2023-05-07T00:20:08.685Z,100377.62
2023-05-07T00:22:35.632Z,100367.97
2023-05-07T00:25:02.375Z,100373.59
2023-05-07T00:27:29.108Z,100368.50
2023-05-07T00:29:55.986Z,100364.62
2023-05-07T00:32:22.806Z,100364.88
2023-05-07T00:34:49.637Z,100353.78
2023-05-07T00:37:16.338Z,100362.28
2023-05-07T00:39:43.051Z,100366.91
2023-05-07T00:42:10.031Z,100367.66
2023-05-07T00:44:36.837Z,100369.06
2023-05-07T00:47:04.736Z,100357.09
2023-05-07T00:49:37.052Z,100368.00
2023-05-07T00:52:03.804Z,100360.91
2023-05-07T00:54:30.744Z,100364.25
2023-05-07T00:56:57.503Z,100364.16
2023-05-07T00:59:24.924Z,100366.94
2023-05-07T01:01:53.301Z,100372.41
2023-05-07T01:04:20.033Z,100366.47
2023-05-07T01:06:47.543Z,100364.00
2023-05-07T01:09:14.953Z,100364.47
2023-05-07T01:11:41.784Z,100363.94
2023-05-07T01:14:09.225Z,100363.69
2023-05-07T01:16:35.987Z,100362.25
2023-05-07T01:19:02.693Z,100363.13
2023-05-07T01:21:33.937Z,100361.66
2023-05-07T01:24:00.843Z,100355.94
2023-05-07T01:26:27.617Z,100364.12
2023-05-07T01:28:54.294Z,100359.16
2023-05-07T01:31:21.601Z,100363.03
2023-05-07T01:33:50.230Z,100363.59
2023-05-07T01:36:18.651Z,100364.31
2023-05-07T01:38:45.711Z,100365.87
2023-05-07T01:41:13.058Z,100355.41
2023-05-07T01:43:41.090Z,100360.78
2023-05-07T01:46:08.227Z,100357.47
2023-05-07T01:48:35.827Z,100357.78
2023-05-07T01:51:03.391Z,100356.50
2023-05-07T01:53:30.168Z,100355.63
2023-05-07T01:55:56.948Z,100363.22
2023-05-07T01:58:23.605Z,100369.16
2023-05-07T02:00:50.334Z,100359.37
2023-05-07T02:03:17.194Z,100365.59
2023-05-07T02:05:43.940Z,100365.06
2023-05-07T02:08:10.955Z,100366.72
2023-05-07T02:10:37.745Z,100372.91
2023-05-07T02:13:04.820Z,100372.78
2023-05-07T02:15:31.687Z,100372.59
2023-05-07T02:18:01.544Z,100363.53
2023-05-07T02:20:28.674Z,100369.56
2023-05-07T02:22:55.378Z,100357.28
2023-05-07T02:25:22.347Z,100362.81
2023-05-07T02:27:49.148Z,100359.06
2023-05-07T02:30:16.195Z,100361.31
2023-05-07T02:32:43.664Z,100355.66
2023-05-07T02:35:10.594Z,100357.25
2023-05-07T02:37:37.308Z,100353.84
2023-05-07T02:40:05.546Z,100355.66
2023-05-07T02:42:32.417Z,100361.53
2023-05-07T02:44:59.175Z,100352.72
2023-05-07T02:47:28.185Z,100355.53
2023-05-07T02:49:55.214Z,100360.97
2023-05-07T02:52:22.187Z,100355.94
2023-05-07T02:54:48.946Z,100360.50
2023-05-07T02:57:16.067Z,100358.63
2023-05-07T02:59:43.196Z,100353.44
2023-05-07T03:02:10.256Z,100358.66
2023-05-07T03:04:37.199Z,100347.81
2023-05-07T03:07:04.013Z,100353.59
2023-05-07T03:09:30.841Z,100355.13
2023-05-07T03:11:57.759Z,100353.88
2023-05-07T03:14:24.463Z,100360.91
2023-05-07T03:16:51.374Z,100365.63
2023-05-07T03:19:18.106Z,100362.81
2023-05-07T03:21:44.778Z,100369.97
2023-05-07T03:24:11.596Z,100374.81
2023-05-07T03:26:38.321Z,100375.13
2023-05-07T03:29:05.005Z,100378.34
2023-05-07T03:31:31.759Z,100383.44
2023-05-07T03:33:58.907Z,100388.44
2023-05-07T03:36:27.887Z,100377.62
2023-05-07T03:38:54.727Z,100377.09
2023-05-07T03:41:21.933Z,100382.03
2023-05-07T03:43:48.727Z,100378.97
2023-05-07T03:46:15.693Z,100386.28
2023-05-07T03:48:42.430Z,100382.22
2023-05-07T03:51:09.165Z,100387.13
2023-05-07T03:53:36.015Z,100392.09
2023-05-07T03:56:02.731Z,100400.22
2023-05-07T03:58:29.471Z,100387.34
2023-05-07T04:00:56.135Z,100391.59
2023-05-07T04:03:22.997Z,100386.97
2023-05-07T04:05:49.799Z,100399.84
2023-05-07T04:08:16.513Z,100402.03
2023-05-07T04:10:43.238Z,100400.78
2023-05-07T04:13:10.090Z,100402.03
2023-05-07T04:15:37.278Z,100401.12
2023-05-07T04:18:04.129Z,100402.00
2023-05-07T04:20:30.870Z,100409.09
2023-05-07T04:22:57.613Z,100406.44
2023-05-07T04:25:28.014Z,100410.81
2023-05-07T04:27:56.668Z,100410.97
2023-05-07T04:30:24.833Z,100409.56
2023-05-07T04:32:51.734Z,100413.78
2023-05-07T04:35:18.676Z,100415.94
2023-05-07T04:37:45.401Z,100423.13
2023-05-07T04:40:12.467Z,100423.44
2023-05-07T04:42:39.330Z,100422.53
2023-05-07T04:45:06.375Z,100423.09
2023-05-07T04:47:33.121Z,100425.78
2023-05-07T04:49:59.867Z,100429.94
2023-05-07T04:52:27.426Z,100436.69
2023-05-07T04:54:54.218Z,100446.34
2023-05-07T04:57:20.989Z,100451.53
2023-05-07T04:59:47.697Z,100447.88
2023-05-07T05:02:14.356Z,100451.03
2023-05-07T05:04:41.026Z,100453.25
2023-05-07T05:07:07.771Z,100452.06
2023-05-07T05:09:34.475Z,100447.69
2023-05-07T05:12:01.184Z,100451.56
2023-05-07T05:14:28.991Z,100444.72
2023-05-07T05:16:55.874Z,100446.69
2023-05-07T05:19:22.574Z,100449.88
2023-05-07T05:21:49.252Z,100444.03
2023-05-07T05:24:16.522Z,100438.94
2023-05-07T05:26:43.276Z,100442.31
2023-05-07T05:29:10.154Z,100438.44
2023-05-07T05:31:37.548Z,100440.50
2023-05-07T05:34:04.830Z,100442.44
2023-05-07T05:36:31.952Z,100447.72
2023-05-07T05:38:58.732Z,100446.16
2023-05-07T05:41:26.155Z,100447.59
2023-05-07T05:43:52.915Z,100447.50
2023-05-07T05:46:19.669Z,100451.88
2023-05-07T05:48:46.456Z,100455.03
2023-05-07T05:51:13.675Z,100451.38
2023-05-07T05:53:40.427Z,100455.22
2023-05-07T05:56:07.415Z,100457.75
2023-05-07T05:58:34.267Z,100453.87
2023-05-07T06:01:01.256Z,100449.47
2023-05-07T06:03:28.042Z,100449.50
2023-05-07T06:05:54.835Z,100456.38
2023-05-07T06:08:21.635Z,100455.09
2023-05-07T06:10:48.434Z,100450.97
2023-05-07T06:13:15.300Z,100462.03
2023-05-07T06:15:42.103Z,100453.00
2023-05-07T06:18:08.920Z,100458.88
2023-05-07T06:20:35.619Z,100454.81
2023-05-07T06:23:02.335Z,100460.31
2023-05-07T06:25:29.090Z,100459.59
2023-05-07T06:27:55.813Z,100459.94
2023-05-07T06:30:22.732Z,100457.78
2023-05-07T06:32:49.533Z,100451.69
2023-05-07T06:35:16.302Z,100457.50
2023-05-07T06:37:43.957Z,100453.78
2023-05-07T06:40:11.255Z,100453.91
2023-05-07T06:42:38.616Z,100453.53
2023-05-07T06:45:05.638Z,100446.75
2023-05-07T06:47:32.388Z,100449.72
2023-05-07T06:49:59.164Z,100449.22
2023-05-07T06:52:26.217Z,100455.03
2023-05-07T06:54:53.017Z,100458.25
2023-05-07T06:57:19.756Z,100452.16
2023-05-07T06:59:46.436Z,100453.87
2023-05-07T07:02:13.167Z,100448.84
2023-05-07T07:04:40.081Z,100438.31
2023-05-07T07:07:06.942Z,100436.97
2023-05-07T07:09:33.662Z,100446.47
2023-05-07T07:12:00.433Z,100444.84
2023-05-07T07:14:27.138Z,100447.56
2023-05-07T07:16:53.902Z,100450.97
2023-05-07T07:19:21.566Z,100458.75
2023-05-07T07:21:48.333Z,100450.09
2023-05-07T07:24:20.367Z,100452.97
2023-05-07T07:26:47.133Z,100461.09
2023-05-07T07:29:14.021Z,100452.72
2023-05-07T07:31:40.894Z,100444.94
2023-05-07T07:34:07.698Z,100446.16
2023-05-07T07:36:42.838Z,100448.41
2023-05-07T07:39:12.813Z,100444.97
2023-05-07T07:41:39.627Z,100435.12
2023-05-07T07:44:08.766Z,100445.00
2023-05-07T07:46:36.094Z,100443.66
2023-05-07T07:49:02.893Z,100446.09
2023-05-07T07:51:29.705Z,100442.78
2023-05-07T07:53:56.621Z,100443.31
2023-05-07T07:56:23.537Z,100443.59
2023-05-07T07:58:50.302Z,100443.38
2023-05-07T08:01:17.897Z,100439.25
2023-05-07T08:03:44.744Z,100439.69
2023-05-07T08:06:11.805Z,100440.56
2023-05-07T08:08:38.840Z,100429.06
2023-05-07T08:11:05.664Z,100434.19
2023-05-07T08:13:32.538Z,100440.09
2023-05-07T08:15:59.292Z,100433.84
2023-05-07T08:18:26.670Z,100438.66
2023-05-07T08:20:53.501Z,100448.09
2023-05-07T08:23:20.307Z,100437.41
2023-05-07T08:25:47.077Z,100443.91
2023-05-07T08:28:13.828Z,100444.56
2023-05-07T08:30:40.651Z,100436.53
2023-05-07T08:33:07.433Z,100432.12
2023-05-07T08:35:34.232Z,100428.81
2023-05-07T08:38:01.066Z,100431.88
2023-05-07T08:40:28.129Z,100430.03
2023-05-07T08:42:55.116Z,100428.50
2023-05-07T08:45:22.305Z,100423.44
2023-05-07T08:47:53.020Z,100438.81
2023-05-07T08:50:21.009Z,100424.06
2023-05-07T08:52:48.434Z,100420.09
2023-05-07T08:55:15.368Z,100428.25
2023-05-07T08:57:42.149Z,100424.66
2023-05-07T09:00:09.226Z,100428.38
2023-05-07T09:02:39.110Z,100426.66
2023-05-07T09:05:06.144Z,100428.84
2023-05-07T09:07:33.223Z,100426.81
2023-05-07T09:10:02.439Z,100434.41
2023-05-07T09:12:29.211Z,100432.75
2023-05-07T09:14:55.927Z,100438.66
2023-05-07T09:17:22.656Z,100432.59
2023-05-07T09:19:49.577Z,100431.06
2023-05-07T09:22:16.544Z,100434.09
2023-05-07T09:24:48.530Z,100439.19
2023-05-07T09:27:15.724Z,100437.53
2023-05-07T09:29:42.546Z,100437.94
2023-05-07T09:32:09.817Z,100441.56
2023-05-07T09:34:37.478Z,100439.25
2023-05-07T09:37:04.932Z,100434.78
2023-05-07T09:39:57.784Z,100429.59
2023-05-07T09:42:25.786Z,100444.59
2023-05-07T09:44:52.529Z,100439.31
2023-05-07T09:47:24.777Z,100448.13
2023-05-07T09:49:51.544Z,100442.06
2023-05-07T09:52:18.388Z,100434.50
2023-05-07T09:54:46.477Z,100434.03
2023-05-07T09:57:13.356Z,100433.81
2023-05-07T09:59:43.512Z,100438.50
2023-05-07T10:02:11.581Z,100434.44
2023-05-07T10:04:38.451Z,100433.59
2023-05-07T10:07:06.189Z,100440.44
2023-05-07T10:09:33.294Z,100435.72
2023-05-07T10:12:00.676Z,100439.41
2023-05-07T10:14:29.350Z,100443.06
2023-05-07T10:16:56.307Z,100443.72
2023-05-07T10:19:23.342Z,100447.94
2023-05-07T10:21:55.347Z,100443.19
2023-05-07T10:24:26.876Z,100444.16
2023-05-07T10:26:54.246Z,100434.78
2023-05-07T10:29:33.066Z,100444.31
2023-05-07T10:32:02.780Z,100430.00
2023-05-07T10:34:34.099Z,100435.81
2023-05-07T10:37:01.514Z,100435.03
2023-05-07T10:39:28.466Z,100436.69
2023-05-07T10:41:55.216Z,100431.78
2023-05-07T10:44:29.380Z,100433.31
2023-05-07T10:47:25.393Z,100432.34
2023-05-07T10:49:52.275Z,100432.06
2023-05-07T10:52:20.150Z,100435.16
2023-05-07T10:54:47.383Z,100432.06
2023-05-07T10:57:32.983Z,100436.22
2023-05-07T10:59:59.830Z,100435.28
2023-05-07T11:02:59.289Z,100432.31
2023-05-07T11:05:26.289Z,100435.94
2023-05-07T11:07:57.018Z,100429.16
2023-05-07T11:10:23.829Z,100438.00
2023-05-07T11:12:51.814Z,100430.91
2023-05-07T11:15:38.854Z,100434.16
2023-05-07T11:18:05.726Z,100424.06
2023-05-07T11:20:54.305Z,100425.66
2023-05-07T11:23:33.355Z,100419.38
2023-05-07T11:26:07.199Z,100419.03
2023-05-07T11:28:39.893Z,100410.31
2023-05-07T11:31:06.699Z,100413.28
2023-05-07T11:33:33.658Z,100405.06
2023-05-07T11:36:03.949Z,100416.78
2023-05-07T11:38:37.688Z,100422.47
2023-05-07T11:41:06.247Z,100421.84
2023-05-07T11:43:33.666Z,100416.53
2023-05-07T11:46:11.125Z,100422.53
2023-05-07T11:48:38.332Z,100416.25
2023-05-07T11:51:06.367Z,100425.88
2023-05-07T11:53:40.418Z,100427.88
2023-05-07T11:56:08.335Z,100422.69
2023-05-07T11:58:35.518Z,100421.25
2023-05-07T12:01:02.261Z,100427.78
2023-05-07T12:03:31.725Z,100427.19
2023-05-07T12:05:59.005Z,100430.00
2023-05-07T12:08:25.936Z,100427.03
2023-05-07T12:10:52.763Z,100425.91
2023-05-07T12:13:20.299Z,100432.34
2023-05-07T12:15:47.242Z,100432.75
2023-05-07T12:18:14.531Z,100425.44
2023-05-07T12:20:41.616Z,100427.84
2023-05-07T12:23:08.395Z,100422.97
2023-05-07T12:25:44.391Z,100425.66
2023-05-07T12:28:14.024Z,100429.91
2023-05-07T12:30:41.104Z,100420.81
2023-05-07T12:33:07.905Z,100427.91
2023-05-07T12:35:40.705Z,100428.66
2023-05-07T12:38:11.989Z,100418.19
2023-05-07T12:40:38.707Z,100410.19
2023-05-07T12:43:05.758Z,100415.16
2023-05-07T12:45:32.663Z,100408.47
2023-05-07T12:48:02.724Z,100409.94
2023-05-07T12:50:32.430Z,100407.13
2023-05-07T12:52:59.232Z,100413.72
2023-05-07T12:55:26.228Z,100404.47
2023-05-07T12:57:54.266Z,100411.75
2023-05-07T13:00:34.115Z,100406.19
2023-05-07T13:03:00.977Z,100398.41
2023-05-07T13:05:27.758Z,100403.44
2023-05-07T13:07:55.403Z,100398.62
2023-05-07T13:10:22.932Z,100399.22
2023-05-07T13:12:49.680Z,100407.41
2023-05-07T13:15:17.035Z,100397.63
2023-05-07T13:17:43.875Z,100395.81
2023-05-07T13:20:11.272Z,100398.38
2023-05-07T13:22:38.238Z,100389.41
2023-05-07T13:25:05.114Z,100387.38
2023-05-07T13:27:38.052Z,100378.06
2023-05-07T13:30:06.082Z,100373.97
2023-05-07T13:32:32.964Z,100379.03
2023-05-07T13:34:59.825Z,100374.88
2023-05-07T13:37:26.580Z,100374.69
2023-05-07T13:39:53.390Z,100379.63
2023-05-07T13:42:20.257Z,100377.69
2023-05-07T13:44:47.301Z,100375.44
2023-05-07T13:47:14.094Z,100375.81
2023-05-07T13:49:40.922Z,100382.06
2023-05-07T13:52:07.632Z,100379.94
2023-05-07T13:54:34.394Z,100368.66
2023-05-07T13:57:01.608Z,100368.53
2023-05-07T13:59:28.338Z,100371.84
2023-05-07T14:01:56.128Z,100372.09
2023-05-07T14:04:22.986Z,100369.28
2023-05-07T14:06:49.714Z,100369.78
2023-05-07T14:09:16.549Z,100366.06
2023-05-07T14:11:43.329Z,100365.84
2023-05-07T14:14:12.043Z,100358.00
2023-05-07T14:16:39.122Z,100365.84
2023-05-07T14:19:06.059Z,100357.91
2023-05-07T14:21:32.826Z,100358.13
2023-05-07T14:23:59.602Z,100362.75
2023-05-07T14:26:28.228Z,100363.00
2023-05-07T14:28:56.200Z,100363.63
2023-05-07T14:31:23.052Z,100371.00
2023-05-07T14:33:51.767Z,100371.09
2023-05-07T14:36:21.095Z,100374.38
2023-05-07T14:38:48.384Z,100385.87
2023-05-07T14:41:15.489Z,100389.06
2023-05-07T14:43:42.329Z,100385.09
2023-05-07T14:46:09.084Z,100378.69
2023-05-07T14:48:35.895Z,100385.53
2023-05-07T14:51:02.701Z,100381.00
2023-05-07T14:53:29.388Z,100379.09
2023-05-07T14:55:56.146Z,100380.28
2023-05-07T14:58:22.991Z,100377.22
2023-05-07T15:00:49.745Z,100382.38
2023-05-07T15:03:16.708Z,100380.19
2023-05-07T15:05:43.643Z,100372.81
2023-05-07T15:08:11.108Z,100377.66
2023-05-07T15:10:42.427Z,100373.22
2023-05-07T15:13:12.445Z,100366.06
2023-05-07T15:15:41.463Z,100370.72
2023-05-07T15:18:08.557Z,100375.34
2023-05-07T15:20:35.333Z,100373.34
2023-05-07T15:23:02.260Z,100373.19
2023-05-07T15:25:28.981Z,100367.97
2023-05-07T15:27:55.699Z,100373.41
2023-05-07T15:30:22.462Z,100357.47
2023-05-07T15:32:49.623Z,100372.16
2023-05-07T15:35:16.461Z,100374.44
2023-05-07T15:37:43.253Z,100373.53
2023-05-07T15:40:10.168Z,100368.56
2023-05-07T15:42:36.933Z,100371.28
2023-05-07T15:45:03.825Z,100365.84
2023-05-07T15:47:33.695Z,100371.03
2023-05-07T15:50:00.549Z,100377.13
2023-05-07T15:52:28.508Z,100379.94
2023-05-07T15:54:56.943Z,100368.94
2023-05-07T15:57:24.257Z,100362.72
2023-05-07T15:59:51.002Z,100365.53
2023-05-07T16:02:17.797Z,100367.31
2023-05-07T16:04:44.662Z,100373.66
2023-05-07T16:07:12.773Z,100379.44
2023-05-07T16:09:39.884Z,100379.59
2023-05-07T16:12:06.658Z,100377.22
2023-05-07T16:14:33.414Z,100377.22
2023-05-07T16:17:00.171Z,100376.94
2023-05-07T16:19:30.178Z,100377.06
2023-05-07T16:21:57.253Z,100375.97
2023-05-07T16:24:24.057Z,100370.44
2023-05-07T16:26:50.912Z,100376.97
2023-05-07T16:29:17.815Z,100379.72
2023-05-07T16:31:44.906Z,100378.38
2023-05-07T16:34:11.620Z,100373.34
2023-05-07T16:36:38.337Z,100371.47
2023-05-07T16:39:05.116Z,100374.06
2023-05-07T16:41:31.909Z,100370.75
2023-05-07T16:43:58.905Z,100381.22
2023-05-07T16:46:25.830Z,100385.56
2023-05-07T16:48:52.632Z,100385.28
2023-05-07T16:51:19.382Z,100380.94
2023-05-07T16:53:46.179Z,100383.94
2023-05-07T16:56:12.953Z,100387.31
2023-05-07T16:58:39.747Z,100390.97
2023-05-07T17:01:07.448Z,100388.84
2023-05-07T17:03:34.463Z,100389.41
2023-05-07T17:06:01.310Z,100400.78
2023-05-07T17:08:28.114Z,100393.28
2023-05-07T17:10:54.791Z,100396.66
2023-05-07T17:13:21.748Z,100405.31
2023-05-07T17:15:48.657Z,100405.94
2023-05-07T17:18:15.535Z,100413.06
2023-05-07T17:20:42.350Z,100411.00
2023-05-07T17:23:09.098Z,100417.47
2023-05-07T17:25:37.154Z,100415.69
2023-05-07T17:28:03.924Z,100428.59
2023-05-07T17:30:30.665Z,100419.06
2023-05-07T17:33:06.320Z,100428.72
2023-05-07T17:35:39.945Z,100437.34
2023-05-07T17:38:06.706Z,100438.34
2023-05-07T17:40:34.685Z,100445.50
2023-05-07T17:43:02.129Z,100441.63
2023-05-07T17:45:28.859Z,100446.81
2023-05-07T17:47:55.830Z,100449.59
2023-05-07T17:50:23.012Z,100451.28
2023-05-07T17:52:49.713Z,100454.19
2023-05-07T17:55:16.884Z,100452.62
2023-05-07T17:57:43.790Z,100450.13
2023-05-07T18:00:11.498Z,100450.81
2023-05-07T18:02:38.736Z,100449.53
2023-05-07T18:05:05.732Z,100453.69
2023-05-07T18:07:32.599Z,100467.47
2023-05-07T18:09:59.496Z,100462.44
2023-05-07T18:12:27.574Z,100467.00
2023-05-07T18:14:54.751Z,100475.53
2023-05-07T18:17:24.408Z,100480.63
2023-05-07T18:19:54.560Z,100484.84
2023-05-07T18:22:21.820Z,100491.37
2023-05-07T18:24:48.861Z,100501.53
2023-05-07T18:27:15.737Z,100496.72
2023-05-07T18:29:42.538Z,100513.03
2023-05-07T18:32:09.349Z,100520.59
2023-05-07T18:34:36.169Z,100514.09
2023-05-07T18:37:02.971Z,100509.94
2023-05-07T18:39:29.709Z,100521.91
2023-05-07T18:41:58.120Z,100526.97
2023-05-07T18:44:25.193Z,100528.78
2023-05-07T18:46:52.051Z,100528.37
2023-05-07T18:49:18.948Z,100528.41
2023-05-07T18:51:45.926Z,100540.66
2023-05-07T18:54:12.986Z,100542.19
2023-05-07T18:56:39.693Z,100541.56
2023-05-07T18:59:06.439Z,100540.28
2023-05-07T19:01:33.486Z,100551.06
2023-05-07T19:04:00.287Z,100565.63
2023-05-07T19:06:27.189Z,100560.38
2023-05-07T19:08:53.964Z,100558.06
2023-05-07T19:11:21.093Z,100566.56
2023-05-07T19:13:47.907Z,100572.50
2023-05-07T19:16:14.715Z,100569.03
2023-05-07T19:18:41.940Z,100589.06
2023-05-07T19:21:08.847Z,100589.34
2023-05-07T19:23:41.832Z,100585.84
2023-05-07T19:26:11.790Z,100592.69
2023-05-07T19:28:42.223Z,100590.97
2023-05-07T19:31:18.892Z,100594.91
2023-05-07T19:33:46.129Z,100600.22
2023-05-07T19:36:12.881Z,100602.22
2023-05-07T19:38:39.630Z,100597.63
2023-05-07T19:41:06.576Z,100600.78
2023-05-07T19:43:36.433Z,100603.59
2023-05-07T19:46:03.197Z,100619.63
2023-05-07T19:48:30.290Z,100609.97
2023-05-07T19:50:57.173Z,100618.47
2023-05-07T19:53:23.943Z,100612.63
2023-05-07T19:55:50.703Z,100617.22
2023-05-07T19:58:17.391Z,100620.53
2023-05-07T20:00:44.144Z,100626.09
2023-05-07T20:03:18.280Z,100633.37
2023-05-07T20:05:46.258Z,100635.50
2023-05-07T20:08:12.994Z,100628.78
2023-05-07T20:10:39.772Z,100623.87
2023-05-07T20:13:06.565Z,100631.44
2023-05-07T20:15:33.303Z,100626.84
2023-05-07T20:18:00.082Z,100630.84
2023-05-07T20:20:26.926Z,100633.25
2023-05-07T20:22:53.622Z,100629.06
2023-05-07T20:25:20.676Z,100626.75
2023-05-07T20:27:47.399Z,100634.09
2023-05-07T20:30:14.625Z,100639.06
2023-05-07T20:32:41.941Z,100642.34
2023-05-07T20:35:08.836Z,100650.47
2023-05-07T20:37:36.158Z,100647.44
2023-05-07T20:40:04.692Z,100664.13
2023-05-07T20:42:31.429Z,100670.94
2023-05-07T20:44:58.376Z,100666.38
2023-05-07T20:47:25.114Z,100670.69
2023-05-07T20:49:52.794Z,100675.72
2023-05-07T20:52:19.639Z,100683.03
2023-05-07T20:54:47.599Z,100683.31
2023-05-07T20:57:14.545Z,100698.66
2023-05-07T20:59:41.376Z,100695.69
2023-05-07T21:02:08.270Z,100708.59
2023-05-07T21:04:35.260Z,100716.28
2023-05-07T21:07:02.016Z,100713.69
2023-05-07T21:09:28.783Z,100721.22
2023-05-07T21:11:55.472Z,100713.47
2023-05-07T21:14:22.152Z,100723.53
2023-05-07T21:16:48.922Z,100726.38
2023-05-07T21:19:15.997Z,100731.25
2023-05-07T21:21:43.307Z,100735.25
2023-05-07T21:24:10.017Z,100740.78
2023-05-07T21:26:36.785Z,100744.59
2023-05-07T21:29:03.663Z,100754.19
2023-05-07T21:31:30.496Z,100760.69
2023-05-07T21:33:57.705Z,100768.50
2023-05-07T21:36:24.408Z,100757.31
2023-05-07T21:38:51.168Z,100757.88
2023-05-07T21:41:20.532Z,100751.63
2023-05-07T21:43:47.404Z,100750.53
2023-05-07T21:46:14.133Z,100744.25
2023-05-07T21:48:40.900Z,100746.19
2023-05-07T21:51:08.318Z,100751.44
2023-05-07T21:53:35.249Z,100748.38
2023-05-07T21:56:03.175Z,100749.50
2023-05-07T21:58:31.100Z,100760.56
2023-05-07T22:00:58.292Z,100762.34
2023-05-07T22:03:25.115Z,100764.22
2023-05-07T22:05:51.839Z,100766.03
2023-05-07T22:08:18.510Z,100786.25
2023-05-07T22:10:45.168Z,100786.13
2023-05-07T22:13:12.341Z,100784.50
2023-05-07T22:15:49.529Z,100778.50
2023-05-07T22:18:23.176Z,100787.59
2023-05-07T22:20:51.228Z,100782.37
2023-05-07T22:23:17.917Z,100785.34
2023-05-07T22:25:44.563Z,100781.50
2023-05-07T22:28:11.206Z,100796.53
2023-05-07T22:30:38.026Z,100790.63
2023-05-07T22:33:04.786Z,100787.38
2023-05-07T22:35:31.570Z,100782.31
2023-05-07T22:37:58.680Z,100775.97
2023-05-07T22:40:25.342Z,100782.25
2023-05-07T22:42:51.901Z,100787.19
2023-05-07T22:45:18.532Z,100778.78
2023-05-07T22:47:45.228Z,100791.91
2023-05-07T22:50:12.364Z,100790.72
2023-05-07T22:52:39.231Z,100795.28
2023-05-07T22:55:06.184Z,100800.78
2023-05-07T22:57:32.822Z,100808.56
2023-05-07T22:59:59.402Z,100819.47
2023-05-07T23:02:29.187Z,100822.28
2023-05-07T23:04:58.531Z,100824.50
2023-05-07T23:07:25.292Z,100830.69
2023-05-07T23:09:52.204Z,100833.87
2023-05-07T23:12:18.910Z,100837.37
2023-05-07T23:14:45.651Z,100843.41
2023-05-07T23:17:12.490Z,100837.75
2023-05-07T23:19:39.283Z,100843.03
2023-05-07T23:22:05.970Z,100842.91
2023-05-07T23:24:32.672Z,100850.22
2023-05-07T23:26:59.422Z,100844.66
2023-05-07T23:29:26.111Z,100844.72
2023-05-07T23:31:52.844Z,100848.06
2023-05-07T23:34:24.183Z,100848.75
2023-05-07T23:36:51.480Z,100837.37
2023-05-07T23:39:18.552Z,100825.34
2023-05-07T23:41:45.500Z,100820.97
2023-05-07T23:44:12.423Z,100822.34
2023-05-07T23:46:39.195Z,100823.19
2023-05-07T23:49:06.023Z,100832.16
2023-05-07T23:51:32.747Z,100831.47
2023-05-07T23:53:59.463Z,100836.87
2023-05-07T23:56:26.202Z,100840.91
2023-05-07T23:58:52.947Z,100832.28
